createdAt,value
2023-01-30T00:01:39.806Z,101190.97
2023-01-30T00:04:08.771Z,101171.44
2023-01-30T00:06:35.313Z,101142.75
2023-01-30T00:09:02.013Z,101159.59
2023-01-30T00:11:33.405Z,101154.63
2023-01-30T00:14:01.778Z,101150.31
2023-01-30T00:16:28.355Z,101135.84
2023-01-30T00:18:57.762Z,101148.94
2023-01-30T00:21:27.041Z,101113.34
2023-01-30T00:23:53.584Z,101108.41
2023-01-30T00:26:24.856Z,101115.25
2023-01-30T00:28:55.466Z,101097.13
2023-01-30T00:31:33.791Z,101116.00
2023-01-30T00:34:03.649Z,101141.06
2023-01-30T00:36:33.613Z,101101.00
2023-01-30T00:39:00.359Z,101062.72
2023-01-30T00:41:52.730Z,101145.41
2023-01-30T00:44:38.132Z,101119.84
2023-01-30T00:47:10.770Z,101104.19
2023-01-30T00:49:42.422Z,101072.44
2023-01-30T00:52:14.946Z,101161.81
2023-01-30T00:54:42.844Z,101173.94
2023-01-30T00:57:09.933Z,101074.69
2023-01-30T00:59:39.055Z,101070.69
2023-01-30T01:02:05.860Z,101013.13
2023-01-30T01:04:44.374Z,101108.94
2023-01-30T01:07:16.675Z,101004.94
2023-01-30T01:09:50.545Z,101009.63
2023-01-30T01:12:35.415Z,100958.31
2023-01-30T01:15:04.442Z,100976.69
2023-01-30T01:17:41.309Z,101087.94
2023-01-30T01:20:20.434Z,101063.50
2023-01-30T01:22:54.421Z,101016.81
2023-01-30T01:25:24.586Z,100998.09
2023-01-30T01:27:52.707Z,101030.66
2023-01-30T01:30:22.414Z,100982.09
2023-01-30T01:32:48.975Z,101030.53
2023-01-30T01:35:20.175Z,100987.25
2023-01-30T01:37:56.183Z,100989.47
2023-01-30T01:40:51.922Z,101064.41
2023-01-30T01:43:32.168Z,101018.25
2023-01-30T01:46:08.858Z,100993.44
2023-01-30T01:48:44.385Z,100956.03
2023-01-30T01:51:26.957Z,100933.81
2023-01-30T01:54:13.278Z,100936.13
2023-01-30T01:56:56.693Z,100970.06
2023-01-30T01:59:59.798Z,100998.34
2023-01-30T02:02:27.121Z,100962.13
2023-01-30T02:05:07.593Z,101005.16
2023-01-30T02:08:34.635Z,100969.41
2023-01-30T02:11:39.080Z,100992.03
2023-01-30T02:16:51.278Z,100933.19
2023-01-30T02:19:56.912Z,101017.09
2023-01-30T02:23:14.611Z,100999.81
2023-01-30T02:26:12.682Z,100999.56
2023-01-30T02:29:35.749Z,100874.19
2023-01-30T02:32:47.238Z,100982.03
2023-01-30T02:35:36.112Z,100875.84
2023-01-30T02:39:14.632Z,101010.81
2023-01-30T02:42:35.565Z,100990.59
2023-01-30T02:50:04.785Z,100873.41
2023-01-30T02:58:36.416Z,100941.03
2023-01-30T03:24:08.268Z,100821.34
2023-01-30T03:52:33.200Z,100805.84
2023-01-30T03:55:36.537Z,100817.06
2023-01-30T03:58:16.612Z,100861.69
2023-01-30T04:19:33.627Z,100826.59
2023-01-30T04:22:13.687Z,100847.97
2023-01-30T04:25:02.213Z,100797.34
2023-01-30T04:27:43.648Z,100817.75
2023-01-30T04:30:35.256Z,100840.91
2023-01-30T04:34:05.941Z,100752.94
2023-01-30T04:37:11.560Z,100865.81
2023-01-30T04:40:12.917Z,100869.53
2023-01-30T04:43:21.183Z,100689.47
2023-01-30T04:56:02.769Z,100767.56
2023-01-30T04:58:32.179Z,100756.38
2023-01-30T05:01:38.532Z,100753.09
2023-01-30T05:04:55.922Z,100730.94
2023-01-30T05:07:26.855Z,100803.41
2023-01-30T05:10:27.739Z,100768.13
2023-01-30T05:13:19.949Z,100755.53
2023-01-30T05:24:09.168Z,100725.75
2023-01-30T07:07:09.937Z,100906.28
2023-01-30T07:23:38.338Z,100856.38
2023-01-30T07:28:59.676Z,100840.59
2023-01-30T07:31:45.772Z,100820.63
2023-01-30T07:34:47.567Z,100882.38
2023-01-30T07:44:20.478Z,100869.22
2023-01-30T07:46:55.707Z,100851.47
2023-01-30T07:49:25.557Z,100855.72
2023-01-30T07:51:52.656Z,100898.97
2023-01-30T07:56:56.848Z,100853.22
2023-01-30T08:18:10.178Z,100797.41
2023-01-30T08:20:37.117Z,100926.19
2023-01-30T08:23:03.928Z,100930.66
2023-01-30T08:25:30.636Z,100952.00
2023-01-30T08:28:00.185Z,100960.66
2023-01-30T08:30:27.739Z,100932.75
2023-01-30T08:33:17.750Z,100911.09
2023-01-30T08:36:40.959Z,100899.06
2023-01-30T08:39:19.602Z,100859.53
2023-01-30T08:41:46.005Z,100917.97
2023-01-30T08:44:12.920Z,100946.84
2023-01-30T08:46:39.907Z,100957.66
2023-01-30T08:49:06.562Z,100947.56
2023-01-30T08:51:33.160Z,100954.38
2023-01-30T08:53:59.645Z,100942.88
2023-01-30T08:56:26.102Z,100955.47
2023-01-30T08:58:52.621Z,100948.38
2023-01-30T09:01:19.096Z,100943.84
2023-01-30T09:03:45.566Z,100940.56
2023-01-30T09:06:12.002Z,100922.91
2023-01-30T09:08:38.382Z,100946.34
2023-01-30T09:11:06.039Z,100969.59
2023-01-30T09:13:34.532Z,100948.09
2023-01-30T09:16:00.912Z,100950.72
2023-01-30T09:18:27.301Z,100963.44
2023-01-30T09:21:02.539Z,100967.53
2023-01-30T09:23:28.996Z,100971.91
2023-01-30T09:25:55.463Z,100953.72
2023-01-30T09:28:21.998Z,100950.88
2023-01-30T09:30:48.448Z,100953.72
2023-01-30T09:33:16.371Z,100992.19
2023-01-30T09:35:42.771Z,100972.06
2023-01-30T09:38:09.669Z,100953.03
2023-01-30T09:40:42.526Z,100996.97
2023-01-30T09:43:51.652Z,101000.41
2023-01-30T09:46:45.563Z,100986.56
2023-01-30T09:49:27.186Z,100974.41
2023-01-30T09:52:10.255Z,100984.09
2023-01-30T09:54:40.143Z,100996.16
2023-01-30T09:57:21.334Z,101001.34
2023-01-30T10:00:17.197Z,100998.78
2023-01-30T10:02:50.046Z,100994.38
2023-01-30T10:05:16.600Z,100960.69
2023-01-30T10:08:02.748Z,100974.50
2023-01-30T10:10:51.148Z,100967.91
2023-01-30T10:13:48.142Z,100980.63
2023-01-30T10:16:19.555Z,100990.91
2023-01-30T10:19:18.121Z,100988.59
2023-01-30T10:22:00.704Z,101002.84
2023-01-30T10:24:38.097Z,100991.06
2023-01-30T10:27:13.592Z,101024.06
2023-01-30T10:29:44.707Z,100979.94
2023-01-30T10:32:41.674Z,100980.91
2023-01-30T10:35:27.466Z,100976.75
2023-01-30T10:40:58.275Z,100921.53
2023-01-30T10:43:40.906Z,100981.97
2023-01-30T10:46:10.382Z,100947.53
2023-01-30T10:48:58.772Z,100971.41
2023-01-30T10:51:53.392Z,100990.13
2023-01-30T10:54:37.960Z,100986.00
2023-01-30T10:57:36.910Z,100975.06
2023-01-30T11:00:20.007Z,100993.81
2023-01-30T11:03:04.884Z,101012.75
2023-01-30T11:05:44.869Z,100991.19
2023-01-30T11:08:23.816Z,100993.38
2023-01-30T11:10:54.514Z,101008.34
2023-01-30T11:13:27.603Z,100999.56
2023-01-30T11:15:57.880Z,100998.16
2023-01-30T11:19:18.098Z,100976.28
2023-01-30T11:21:43.506Z,100989.03
2023-01-30T11:27:00.782Z,100981.66
2023-01-30T11:29:35.276Z,100983.50
2023-01-30T11:32:05.336Z,100995.16
2023-01-30T11:34:32.453Z,100903.50
2023-01-30T11:37:23.588Z,101024.91
2023-01-30T11:39:53.319Z,100998.09
2023-01-30T11:42:30.408Z,100999.63
2023-01-30T11:45:14.855Z,100973.25
2023-01-30T11:48:05.419Z,101000.75
2023-01-30T11:50:43.755Z,100981.78
2023-01-30T11:53:31.563Z,100990.94
2023-01-30T11:56:06.445Z,100966.84
2023-01-30T11:58:38.797Z,100984.38
2023-01-30T12:01:05.503Z,100987.38
2023-01-30T12:03:34.062Z,101016.75
2023-01-30T12:06:00.584Z,101024.31
2023-01-30T12:08:42.193Z,100997.16
2023-01-30T12:11:42.181Z,101002.56
2023-01-30T12:14:40.037Z,100993.66
2023-01-30T12:17:21.249Z,101025.53
2023-01-30T12:20:22.095Z,101021.53
2023-01-30T12:23:07.346Z,101010.84
2023-01-30T12:25:58.667Z,101012.84
2023-01-30T12:28:37.022Z,101013.19
2023-01-30T12:31:17.391Z,101004.63
2023-01-30T12:33:43.775Z,101005.03
2023-01-30T12:36:35.780Z,101026.16
2023-01-30T12:39:34.015Z,101017.00
2023-01-30T12:42:40.423Z,100997.41
2023-01-30T12:45:12.641Z,101028.78
2023-01-30T12:48:40.708Z,101030.75
2023-01-30T12:51:21.237Z,101004.78
2023-01-30T12:54:21.773Z,101048.59
2023-01-30T12:57:20.668Z,101016.88
2023-01-30T13:00:15.074Z,101051.22
2023-01-30T13:02:59.925Z,101066.34
2023-01-30T13:05:54.313Z,101063.69
2023-01-30T13:08:52.347Z,101071.44
2023-01-30T13:11:28.903Z,101084.09
2023-01-30T13:14:07.066Z,101110.03
2023-01-30T13:16:46.544Z,101132.75
2023-01-30T13:19:23.138Z,101149.25
2023-01-30T13:21:57.720Z,101170.03
2023-01-30T13:24:44.997Z,101112.13
2023-01-30T13:27:19.809Z,101113.66
2023-01-30T13:29:49.042Z,101107.28
2023-01-30T13:32:29.747Z,101118.56
2023-01-30T13:35:00.290Z,101107.78
2023-01-30T13:37:27.542Z,101091.75
2023-01-30T13:40:03.941Z,101114.88
2023-01-30T13:43:09.962Z,101112.66
2023-01-30T13:45:40.971Z,101121.28
2023-01-30T13:48:27.123Z,101139.78
2023-01-30T13:51:07.444Z,101133.44
2023-01-30T13:53:47.021Z,101146.19
2023-01-30T13:56:41.376Z,101151.78
2023-01-30T13:59:25.153Z,101149.53
2023-01-30T14:02:04.031Z,101150.22
2023-01-30T14:04:30.499Z,101150.88
2023-01-30T14:07:12.246Z,101163.38
2023-01-30T14:09:45.301Z,101146.63
2023-01-30T14:12:27.892Z,101168.13
2023-01-30T14:14:59.756Z,101156.13
2023-01-30T14:17:26.864Z,101188.13
2023-01-30T14:20:05.268Z,101181.16
2023-01-30T14:22:39.746Z,101193.00
2023-01-30T14:25:27.756Z,101200.69
2023-01-30T14:27:54.158Z,101206.53
2023-01-30T14:31:07.675Z,101194.53
2023-01-30T14:33:47.482Z,101216.41
2023-01-30T14:36:20.259Z,101223.25
2023-01-30T14:38:57.659Z,101221.56
2023-01-30T14:41:24.023Z,101236.59
2023-01-30T14:43:53.482Z,101201.16
2023-01-30T14:46:23.300Z,101239.97
2023-01-30T14:48:49.704Z,101244.59
2023-01-30T14:52:00.856Z,101248.72
2023-01-30T14:54:42.745Z,101206.94
2023-01-30T14:57:32.583Z,101230.78
2023-01-30T15:00:16.106Z,101251.44
2023-01-30T15:02:51.311Z,101272.13
2023-01-30T15:05:37.405Z,101237.66
2023-01-30T15:08:16.006Z,101285.94
2023-01-30T15:10:51.677Z,101290.44
2023-01-30T15:13:55.674Z,101299.56
2023-01-30T15:16:25.192Z,101291.88
2023-01-30T15:19:22.029Z,101313.19
2023-01-30T15:21:50.637Z,101291.53
2023-01-30T15:24:58.564Z,101302.41
2023-01-30T15:27:46.745Z,101315.88
2023-01-30T15:30:45.399Z,101273.19
2023-01-30T15:33:29.390Z,101251.38
2023-01-30T15:35:56.876Z,101265.81
2023-01-30T15:38:25.233Z,101247.50
2023-01-30T15:40:54.125Z,101296.53
2023-01-30T15:43:32.806Z,101348.00
2023-01-30T15:46:23.133Z,101354.63
2023-01-30T15:49:01.671Z,101352.88
2023-01-30T15:51:30.960Z,101335.91
2023-01-30T15:54:02.442Z,101366.19
2023-01-30T15:56:32.116Z,101328.94
2023-01-30T15:59:03.725Z,101309.16
2023-01-30T16:01:32.850Z,101371.41
2023-01-30T16:04:00.339Z,101329.00
2023-01-30T16:06:35.281Z,101379.84
2023-01-30T16:09:31.359Z,101355.31
2023-01-30T16:16:30.832Z,101418.78
2023-01-30T16:19:00.121Z,101322.38
2023-01-30T16:22:35.115Z,101311.63
2023-01-30T16:24:36.188Z,101353.94
2023-01-30T16:27:27.560Z,101386.72
2023-01-30T17:00:45.800Z,101511.53
2023-01-30T17:21:41.532Z,101432.16
2023-01-30T17:24:13.874Z,101457.06
2023-01-30T17:26:40.920Z,101517.66
2023-01-30T17:29:23.192Z,101504.38
2023-01-30T17:31:56.966Z,101532.53
2023-01-30T17:34:24.325Z,101546.47
2023-01-30T17:36:52.846Z,101560.00
2023-01-30T17:39:21.476Z,101532.88
2023-01-30T17:41:48.444Z,101559.78
2023-01-30T17:44:15.527Z,101587.66
2023-01-30T17:46:45.597Z,101580.44
2023-01-30T17:49:22.777Z,101589.44
2023-01-30T17:51:50.317Z,101590.25
2023-01-30T17:54:17.214Z,101592.84
2023-01-30T17:56:51.591Z,101566.53
2023-01-30T17:59:20.267Z,101585.19
2023-01-30T18:01:49.647Z,101593.56
2023-01-30T18:04:17.806Z,101590.16
2023-01-30T18:06:46.338Z,101599.47
2023-01-30T18:09:15.982Z,101588.72
2023-01-30T18:11:42.541Z,101591.44
2023-01-30T18:14:11.730Z,101587.41
2023-01-30T18:16:38.654Z,101608.81
2023-01-30T18:19:08.628Z,101599.72
2023-01-30T18:21:38.228Z,101619.13
2023-01-30T18:24:04.924Z,101596.91
2023-01-30T18:26:31.433Z,101595.84
2023-01-30T18:28:58.270Z,101605.66
2023-01-30T18:31:26.724Z,101628.69
2023-01-30T18:33:55.065Z,101617.22
2023-01-30T18:36:22.091Z,101625.03
2023-01-30T18:38:48.948Z,101641.19
2023-01-30T18:41:21.428Z,101630.47
2023-01-30T18:43:53.264Z,101643.91
2023-01-30T18:46:19.902Z,101637.78
2023-01-30T18:48:46.948Z,101641.31
2023-01-30T18:51:20.791Z,101646.63
2023-01-30T18:53:48.997Z,101647.94
2023-01-30T18:56:20.879Z,101645.91
2023-01-30T18:58:49.733Z,101655.84
2023-01-30T19:01:18.630Z,101670.63
2023-01-30T19:03:45.056Z,101660.75
2023-01-30T19:06:14.050Z,101672.19
2023-01-30T19:08:41.728Z,101669.81
2023-01-30T19:11:32.348Z,101677.59
2023-01-30T19:13:59.409Z,101683.53
2023-01-30T19:16:27.536Z,101680.06
2023-01-30T19:18:54.947Z,101682.31
2023-01-30T19:21:23.464Z,101676.28
2023-01-30T19:23:50.449Z,101681.41
2023-01-30T19:26:18.801Z,101692.25
2023-01-30T19:28:45.972Z,101713.00
2023-01-30T19:31:14.905Z,101689.75
2023-01-30T19:33:45.732Z,101688.22
2023-01-30T19:36:15.688Z,101688.97
2023-01-30T19:38:43.650Z,101684.44
2023-01-30T19:41:13.728Z,101693.03
2023-01-30T19:43:40.520Z,101716.81
2023-01-30T19:46:07.982Z,101700.44
2023-01-30T19:48:34.498Z,101702.34
2023-01-30T19:51:15.102Z,101724.34
2023-01-30T19:53:44.073Z,101716.34
2023-01-30T19:56:12.376Z,101732.31
2023-01-30T19:58:40.143Z,101719.56
2023-01-30T20:01:10.642Z,101736.06
2023-01-30T20:03:38.442Z,101736.94
2023-01-30T20:06:16.809Z,101745.25
2023-01-30T20:08:45.006Z,101731.91
2023-01-30T20:11:13.787Z,101734.72
2023-01-30T20:13:42.579Z,101750.47
2023-01-30T20:16:11.908Z,101780.34
2023-01-30T20:18:40.077Z,101749.22
2023-01-30T20:21:15.382Z,101751.75
2023-01-30T20:23:42.740Z,101767.50
2023-01-30T20:26:12.397Z,101752.88
2023-01-30T20:28:39.716Z,101750.59
2023-01-30T20:31:12.498Z,101768.50
2023-01-30T20:33:39.854Z,101769.97
2023-01-30T20:36:11.675Z,101774.66
2023-01-30T20:38:40.618Z,101774.78
2023-01-30T20:41:19.479Z,101778.69
2023-01-30T20:43:51.159Z,101777.56
2023-01-30T20:46:17.652Z,101784.81
2023-01-30T20:48:48.312Z,101776.00
2023-01-30T20:51:24.274Z,101783.97
2023-01-30T20:53:51.971Z,101780.34
2023-01-30T20:56:19.624Z,101790.84
2023-01-30T20:58:46.769Z,101778.81
2023-01-30T21:01:17.669Z,101788.56
2023-01-30T21:03:46.150Z,101795.41
2023-01-30T21:06:12.776Z,101786.16
2023-01-30T21:08:40.246Z,101777.03
2023-01-30T21:11:11.222Z,101807.31
2023-01-30T21:13:38.666Z,101804.28
2023-01-30T21:16:11.081Z,101812.06
2023-01-30T21:18:39.726Z,101809.88
2023-01-30T21:21:08.262Z,101817.66
2023-01-30T21:23:35.756Z,101810.78
2023-01-30T21:26:08.119Z,101824.19
2023-01-30T21:28:36.879Z,101817.06
2023-01-30T21:31:09.388Z,101814.38
2023-01-30T21:33:36.624Z,101826.44
2023-01-30T21:36:03.771Z,101823.72
2023-01-30T21:38:49.073Z,101822.16
2023-01-30T21:41:39.500Z,101816.56
2023-01-30T21:44:06.509Z,101836.81
2023-01-30T21:46:38.151Z,101826.13
2023-01-30T21:49:05.359Z,101819.69
2023-01-30T21:51:32.182Z,101830.81
2023-01-30T21:54:03.399Z,101843.22
2023-01-30T21:56:31.296Z,101831.63
2023-01-30T22:36:07.595Z,101851.25
2023-01-30T22:38:34.451Z,101842.31
2023-01-30T22:41:11.078Z,101855.13
2023-01-30T22:43:37.541Z,101849.16
2023-01-30T22:46:07.194Z,101857.97
2023-01-30T22:48:35.990Z,101864.16
2023-01-30T22:51:03.635Z,101873.66
2023-01-30T22:53:39.387Z,101870.34
2023-01-30T22:56:08.613Z,101865.91
2023-01-30T22:58:35.706Z,101867.31
2023-01-30T23:01:13.366Z,101875.22
2023-01-30T23:03:41.474Z,101880.59
2023-01-30T23:06:09.949Z,101874.22
2023-01-30T23:08:39.118Z,101880.69
2023-01-30T23:11:09.400Z,101887.06
2023-01-30T23:13:36.662Z,101882.34
2023-01-30T23:16:05.384Z,101877.72
2023-01-30T23:18:51.464Z,101884.38
2023-01-30T23:21:18.340Z,101876.06
2023-01-30T23:23:45.893Z,101860.72
2023-01-30T23:26:13.207Z,101880.78
2023-01-30T23:28:40.329Z,101884.09
2023-01-30T23:31:19.708Z,101890.03
2023-01-30T23:33:46.999Z,101874.97
2023-01-30T23:36:14.864Z,101891.00
2023-01-30T23:38:41.347Z,101893.59
2023-01-30T23:41:16.324Z,101900.25
2023-01-30T23:43:44.270Z,101893.25
2023-01-30T23:46:15.217Z,101887.66
2023-01-30T23:48:43.025Z,101894.97
2023-01-30T23:51:09.543Z,101887.59
2023-01-30T23:53:36.736Z,101886.00
2023-01-30T23:56:04.665Z,101887.19
2023-01-30T23:58:31.173Z,101882.13
